Time;durP1;ratioP1;P1;durP2;ratioP2;P2;SDS_P1;SDS_P2;PMS_P1;PMS_P2;Temp;Humidity;BMP_temperature;BMP_pressure;BME280_temperature;BME280_humidity;BME280_pressure;Samples;Min_cycle;Max_cycle;Signal;HPM_P1;HPM_P2
2021/01/06 00:00:56;;;;;;;4.07;3.77;;;;;16.20;100448.00;;;;2063862;28;20223;-52
2021/01/06 00:01:56;;;;;;;4.17;3.80;;;;;16.20;100440.00;;;;2063679;28;20250;-53
2021/01/06 00:02:57;;;;;;;4.63;4.27;;;;;16.20;100431.00;;;;2063900;28;20246;-52
2021/01/06 00:03:57;;;;;;;4.03;3.73;;;;;16.20;100438.00;;;;2063238;28;20230;-53
2021/01/06 00:04:58;;;;;;;4.20;3.90;;;;;16.20;100450.00;;;;2063140;28;20219;-51
2021/01/06 00:06:07;;;;;;;4.60;4.20;;;;;16.20;100439.00;;;;2062848;28;20836;-51
2021/01/06 00:07:07;;;;;;;4.20;3.90;;;;;16.20;100432.00;;;;2060258;28;20222;-52
2021/01/06 00:08:08;;;;;;;4.03;3.73;;;;;16.20;100437.00;;;;2063883;28;20588;-51
2021/01/06 00:09:08;;;;;;;4.60;3.70;;;;;16.20;100437.00;;;;2063565;28;20215;-51
2021/01/06 00:10:10;;;;;;;3.90;3.60;;;;;16.20;100439.00;;;;2063747;28;20608;-51
2021/01/06 00:11:11;;;;;;;4.20;3.90;;;;;16.20;100438.00;;;;2061062;28;20238;-51
2021/01/06 00:12:11;;;;;;;3.97;3.67;;;;;16.20;100434.00;;;;2061594;28;20831;-51
2021/01/06 00:13:12;;;;;;;4.20;3.83;;;;;16.20;100435.00;;;;2062896;28;20554;-51
2021/01/06 00:14:14;;;;;;;4.07;3.77;;;;;16.20;100430.00;;;;2060574;28;20219;-51
2021/01/06 00:15:29;;;;;;;4.50;4.10;;;;;16.20;100434.00;;;;2062190;28;21041;-51
2021/01/06 00:16:29;;;;;;;3.95;3.65;;;;;16.20;100428.00;;;;2060634;28;20211;-50
2021/01/06 00:17:30;;;;;;;4.10;3.80;;;;;16.20;100433.00;;;;2060473;28;20222;-50
2021/01/06 00:18:30;;;;;;;3.80;3.50;;;;;16.20;100433.00;;;;2063712;28;20295;-52
2021/01/06 00:19:30;;;;;;;4.13;3.83;;;;;16.20;100436.00;;;;2063759;28;20207;-52
2021/01/06 00:20:31;;;;;;;3.70;3.47;;;;;16.20;100436.00;;;;2063751;28;20208;-51
2021/01/06 00:21:32;;;;;;;3.80;3.50;;;;;16.20;100450.00;;;;2063656;28;20608;-50
2021/01/06 00:22:32;;;;;;;3.60;3.30;;;;;16.20;100436.00;;;;2060777;28;20466;-51
2021/01/06 00:23:33;;;;;;;4.03;3.73;;;;;16.20;100434.00;;;;2062946;28;20223;-51
2021/01/06 00:24:33;;;;;;;3.87;3.57;;;;;16.20;100427.00;;;;2062047;28;20215;-50
2021/01/06 00:25:35;;;;;;;3.73;3.43;;;;;16.20;100447.00;;;;2062926;28;20200;-51
2021/01/06 00:26:36;;;;;;;3.92;3.63;;;;;16.30;100438.00;;;;2063097;28;20265;-52
2021/01/06 00:27:36;;;;;;;4.28;3.97;;;;;16.20;100436.00;;;;2062435;28;20273;-52
2021/01/06 00:28:37;;;;;;;4.10;3.80;;;;;16.20;100435.00;;;;2062804;28;20258;-51
2021/01/06 00:29:37;;;;;;;4.03;3.73;;;;;16.20;100443.00;;;;2063080;28;20688;-51
2021/01/06 00:30:40;;;;;;;3.77;3.47;;;;;16.20;100448.00;;;;2063002;28;20578;-51
2021/01/06 00:31:41;;;;;;;3.80;3.50;;;;;16.20;100440.00;;;;2063120;28;20203;-51
2021/01/06 00:32:41;;;;;;;3.63;3.33;;;;;16.20;100445.00;;;;2060460;28;20203;-50
2021/01/06 00:33:42;;;;;;;3.40;3.13;;;;;16.20;100435.00;;;;2062427;28;20226;-51
2021/01/06 00:34:42;;;;;;;3.50;3.30;;;;;16.20;100441.00;;;;2062456;28;20214;-50
2021/01/06 00:35:47;;;;;;;3.77;3.50;;;;;16.20;100438.00;;;;2062915;28;20334;-51
2021/01/06 00:36:48;;;;;;;3.90;3.60;;;;;16.20;100442.00;;;;2062877;28;20204;-51
2021/01/06 00:37:48;;;;;;;3.43;3.20;;;;;16.20;100435.00;;;;2062897;28;20725;-50
2021/01/06 00:38:50;;;;;;;3.40;3.10;;;;;16.20;100438.00;;;;2062905;28;20458;-52
2021/01/06 00:39:50;;;;;;;3.75;3.45;;;;;16.20;100427.00;;;;2063004;28;22242;-50
2021/01/06 00:40:50;;;;;;;3.63;3.33;;;;;16.20;100435.00;;;;2062762;28;20310;-50
2021/01/06 00:41:51;;;;;;;3.27;3.07;;;;;16.20;100434.00;;;;2062457;28;20220;-51
2021/01/06 00:42:51;;;;;;;3.63;3.33;;;;;16.20;100429.00;;;;2057433;28;20219;-52
2021/01/06 00:43:52;;;;;;;3.90;3.60;;;;;16.20;100422.00;;;;2062741;28;20219;-51
2021/01/06 00:44:53;;;;;;;3.10;2.90;;;;;16.20;100428.00;;;;2062439;28;20210;-50
2021/01/06 00:45:53;;;;;;;3.83;3.53;;;;;16.20;100423.00;;;;2062816;28;20751;-52
2021/01/06 00:46:53;;;;;;;3.40;3.10;;;;;16.20;100434.00;;;;2062555;28;20827;-51
2021/01/06 00:47:54;;;;;;;3.77;3.47;;;;;16.20;100417.00;;;;2062423;28;20243;-51
2021/01/06 00:48:54;;;;;;;3.40;3.10;;;;;16.20;100429.00;;;;2062730;28;20223;-53
2021/01/06 00:49:54;;;;;;;3.97;3.67;;;;;16.20;100421.00;;;;2062861;28;20230;-53
2021/01/06 00:50:55;;;;;;;3.27;2.97;;;;;16.20;100422.00;;;;2062967;28;20231;-52
2021/01/06 00:51:55;;;;;;;2.90;2.70;;;;;16.20;100419.00;;;;2063442;28;20227;-53
2021/01/06 00:53:12;;;;;;;3.40;3.13;;;;;16.20;100427.00;;;;2062615;28;20227;-51
2021/01/06 00:54:12;;;;;;;3.33;3.13;;;;;16.20;100430.00;;;;2062356;28;20755;-50
2021/01/06 00:55:13;;;;;;;3.50;3.20;;;;;16.20;100424.00;;;;2061850;28;20274;-51
2021/01/06 00:56:13;;;;;;;4.10;3.53;;;;;16.20;100429.00;;;;2062273;28;20211;-51
2021/01/06 00:57:14;;;;;;;3.50;3.30;;;;;16.20;100424.00;;;;2059723;28;20588;-50
2021/01/06 00:58:14;;;;;;;3.30;3.10;;;;;16.20;100433.00;;;;2062698;28;20290;-52
2021/01/06 00:59:15;;;;;;;3.30;3.10;;;;;16.20;100428.00;;;;2062925;28;20763;-52
2021/01/06 01:00:17;;;;;;;3.40;3.10;;;;;16.20;100428.00;;;;2062850;28;20215;-51
2021/01/06 01:01:17;;;;;;;3.35;3.08;;;;;16.20;100421.00;;;;2062487;28;20211;-52
2021/01/06 01:02:18;;;;;;;3.30;3.10;;;;;16.20;100420.00;;;;2062811;28;20298;-51
2021/01/06 01:03:18;;;;;;;3.07;2.87;;;;;16.20;100419.00;;;;2062651;28;20211;-51
2021/01/06 01:04:18;;;;;;;3.43;3.13;;;;;16.20;100420.00;;;;2062577;28;20703;-51
2021/01/06 01:05:20;;;;;;;3.30;3.00;;;;;16.20;100420.00;;;;2062104;28;20211;-50
2021/01/06 01:06:27;;;;;;;3.00;2.80;;;;;16.20;100420.00;;;;2062982;28;20708;-51
2021/01/06 01:07:27;;;;;;;3.00;2.70;;;;;16.20;100426.00;;;;2055243;28;20216;-52
2021/01/06 01:08:27;;;;;;;3.00;2.80;;;;;16.20;100422.00;;;;2062870;28;20298;-50
2021/01/06 01:09:28;;;;;;;3.10;2.90;;;;;16.20;100365.00;;;;2062902;28;20216;-51
2021/01/06 01:10:34;;;;;;;3.23;3.00;;;;;16.20;100420.00;;;;2062731;28;20683;-52
2021/01/06 01:11:38;;;;;;;3.13;2.90;;;;;16.00;100423.00;;;;2062115;28;20207;-51
2021/01/06 01:12:39;;;;;;;3.13;2.92;;;;;16.20;100420.00;;;;2055615;28;20750;-51
2021/01/06 01:13:39;;;;;;;3.13;2.93;;;;;16.20;100416.00;;;;2059184;28;20228;-50
2021/01/06 01:14:39;;;;;;;2.90;2.70;;;;;16.20;100408.00;;;;2059271;28;20820;-51
2021/01/06 01:15:40;;;;;;;3.30;3.10;;;;;16.20;100428.00;;;;2062395;28;20285;-50
2021/01/06 01:16:41;;;;;;;2.93;2.73;;;;;16.20;100416.00;;;;2062778;28;20230;-52
2021/01/06 01:17:44;;;;;;;3.63;3.33;;;;;16.20;100423.00;;;;2059929;28;20211;-50
2021/01/06 01:18:44;;;;;;;3.05;2.75;;;;;16.20;100420.00;;;;2062839;28;20204;-52
2021/01/06 01:19:44;;;;;;;3.33;3.07;;;;;16.20;100426.00;;;;2062455;28;20246;-51
2021/01/06 01:20:46;;;;;;;3.20;3.00;;;;;16.20;100421.00;;;;2063053;28;20211;-51
2021/01/06 01:21:47;;;;;;;3.13;2.92;;;;;16.20;100417.00;;;;2062921;28;20239;-51
2021/01/06 01:22:47;;;;;;;2.90;2.70;;;;;16.20;100420.00;;;;2060204;28;20226;-51
2021/01/06 01:23:47;;;;;;;2.60;2.40;;;;;16.20;100423.00;;;;2062626;28;20222;-53
2021/01/06 01:24:48;;;;;;;3.10;2.90;;;;;16.20;100422.00;;;;2062759;28;20211;-50
2021/01/06 01:25:48;;;;;;;2.77;2.57;;;;;16.20;100424.00;;;;2062870;28;20229;-51
2021/01/06 01:26:50;;;;;;;2.50;2.30;;;;;16.20;100418.00;;;;2062476;28;20249;-51
2021/01/06 01:27:51;;;;;;;3.05;2.85;;;;;16.20;100415.00;;;;2061265;28;20211;-52
2021/01/06 01:28:51;;;;;;;3.30;3.00;;;;;16.20;100417.00;;;;2062334;28;20216;-51
2021/01/06 01:29:51;;;;;;;2.70;2.50;;;;;16.20;100424.00;;;;2062500;28;20269;-51
2021/01/06 01:30:52;;;;;;;2.53;2.33;;;;;16.20;100414.00;;;;2061786;28;20310;-51
2021/01/06 01:31:52;;;;;;;2.90;2.63;;;;;16.20;100428.00;;;;2062186;28;20208;-51
2021/01/06 01:32:53;;;;;;;2.70;2.50;;;;;16.20;100421.00;;;;2060291;28;20699;-52
2021/01/06 01:33:53;;;;;;;2.20;2.07;;;;;16.20;100418.00;;;;2062303;28;20700;-50
2021/01/06 01:34:53;;;;;;;3.20;2.90;;;;;16.20;100427.00;;;;2062041;28;20227;-51
2021/01/06 01:35:54;;;;;;;3.17;2.97;;;;;16.20;100419.00;;;;2062656;28;20207;-50
2021/01/06 01:36:55;;;;;;;2.70;2.50;;;;;16.20;100427.00;;;;2062433;28;20834;-50
2021/01/06 01:37:55;;;;;;;2.97;2.77;;;;;16.20;100420.00;;;;2059908;28;20231;-52
2021/01/06 01:38:56;;;;;;;3.00;2.80;;;;;16.20;100416.00;;;;2062425;28;20274;-52
2021/01/06 01:39:56;;;;;;;3.20;2.90;;;;;16.20;100430.00;;;;2061825;28;20450;-50
2021/01/06 01:41:08;;;;;;;2.63;2.43;;;;;16.20;100426.00;;;;2061908;28;20688;-52
2021/01/06 01:42:08;;;;;;;2.90;2.70;;;;;16.20;100419.00;;;;2062541;28;20302;-52
2021/01/06 01:43:17;;;;;;;2.57;2.37;;;;;16.20;100420.00;;;;2060284;28;20636;-50
2021/01/06 01:44:17;;;;;;;2.70;2.50;;;;;16.20;100428.00;;;;2062277;28;20222;-51
2021/01/06 01:45:18;;;;;;;2.87;2.67;;;;;16.20;100422.00;;;;2059867;28;20964;-50
2021/01/06 01:46:30;;;;;;;2.43;2.33;;;;;16.20;100421.00;;;;2062352;28;21046;-50
2021/01/06 01:47:45;;;;;;;2.65;2.45;;;;;16.20;100423.00;;;;2054716;28;20731;-50
2021/01/06 01:48:46;;;;;;;3.20;2.90;;;;;16.20;100411.00;;;;2078656;28;20299;-52
2021/01/06 01:49:47;;;;;;;2.55;2.35;;;;;16.20;100425.00;;;;2069876;28;20253;-51
2021/01/06 01:50:47;;;;;;;2.60;2.40;;;;;16.20;100424.00;;;;2061967;28;20289;-50
2021/01/06 01:51:54;;;;;;;2.10;1.93;;;;;16.20;100424.00;;;;2054166;28;20204;-51
2021/01/06 01:52:59;;;;;;;2.95;2.75;;;;;16.20;100419.00;;;;2049733;28;20642;-53
2021/01/06 01:54:04;;;;;;;2.80;2.60;;;;;16.20;100419.00;;;;2061783;28;20214;-52
2021/01/06 01:55:05;;;;;;;2.15;2.05;;;;;16.20;100409.00;;;;2061643;28;20289;-52
2021/01/06 01:56:05;;;;;;;3.05;2.78;;;;;16.20;100419.00;;;;2067880;28;20777;-52
2021/01/06 01:57:07;;;;;;;3.00;2.80;;;;;16.20;100416.00;;;;2070037;28;20246;-51
2021/01/06 01:58:11;;;;;;;2.80;2.60;;;;;16.20;100415.00;;;;2062305;28;20283;-51
2021/01/06 01:59:29;;;;;;;2.63;2.42;;;;;16.20;100418.00;;;;2061533;28;20217;-51
2021/01/06 02:00:31;;;;;;;2.20;2.10;;;;;16.20;100413.00;;;;2055335;28;20346;-51
2021/01/06 02:01:31;;;;;;;2.40;2.20;;;;;16.20;100415.00;;;;2054086;28;20587;-51
2021/01/06 02:02:36;;;;;;;2.60;2.40;;;;;16.20;100414.00;;;;2047443;28;20216;-52
2021/01/06 02:03:41;;;;;;;2.75;2.55;;;;;16.20;100412.00;;;;2047730;28;20262;-51
2021/01/06 02:04:44;;;;;;;2.50;2.30;;;;;16.20;100411.00;;;;2056066;28;20220;-51
2021/01/06 02:06:11;;;;;;;2.42;2.25;;;;;16.20;100409.00;;;;2071731;28;20210;-52
2021/01/06 02:07:15;;;;;;;2.75;2.55;;;;;16.20;100410.00;;;;2062658;28;21193;-52
2021/01/06 02:08:31;;;;;;;2.20;2.10;;;;;16.20;100415.00;;;;2050125;28;20228;-51
2021/01/06 02:09:46;;;;;;;2.85;2.65;;;;;16.20;100410.00;;;;2057637;28;20816;-51
2021/01/06 02:10:59;;;;;;;2.75;2.55;;;;;16.20;100414.00;;;;2054890;28;20265;-51
2021/01/06 02:12:22;;;;;;;2.33;2.20;;;;;16.20;100415.00;;;;2057520;28;20247;-51
2021/01/06 02:13:26;;;;;;;2.78;2.58;;;;;16.20;100421.00;;;;2050639;28;20224;-51
2021/01/06 02:14:29;;;;;;;2.33;2.15;;;;;16.20;100407.00;;;;2054201;28;20234;-51
2021/01/06 02:15:49;;;;;;;2.33;2.13;;;;;16.20;100418.00;;;;2056061;28;20601;-51
2021/01/06 02:16:50;;;;;;;2.70;2.50;;;;;16.20;100405.00;;;;2071805;28;20222;-51
2021/01/06 02:17:50;;;;;;;2.40;2.20;;;;;16.20;100405.00;;;;2070035;28;20566;-51
2021/01/06 02:18:50;;;;;;;2.40;2.20;;;;;16.20;100409.00;;;;2063903;28;20719;-52
2021/01/06 02:19:51;;;;;;;2.53;2.33;;;;;16.20;100407.00;;;;2064296;28;20211;-51
2021/01/06 02:21:14;;;;;;;2.17;2.07;;;;;16.20;100413.00;;;;2064052;28;20301;-51
2021/01/06 02:22:16;;;;;;;1.92;1.83;;;;;16.20;100409.00;;;;2063839;28;20269;-53
2021/01/06 02:23:17;;;;;;;2.40;2.20;;;;;16.20;100409.00;;;;2079039;28;20856;-51
2021/01/06 02:24:17;;;;;;;2.07;1.97;;;;;16.20;100415.00;;;;2062888;28;20359;-51
2021/01/06 02:25:19;;;;;;;2.30;2.20;;;;;16.20;100403.00;;;;2050845;28;20344;-51
2021/01/06 02:26:19;;;;;;;1.80;1.70;;;;;16.20;100407.00;;;;2064314;28;20211;-50
2021/01/06 02:27:19;;;;;;;2.23;2.03;;;;;16.20;100411.00;;;;2063721;28;20207;-51
2021/01/06 02:28:20;;;;;;;2.33;2.17;;;;;16.20;100411.00;;;;2063357;28;20577;-50
2021/01/06 02:29:21;;;;;;;2.10;2.00;;;;;16.20;100407.00;;;;2072077;28;20214;-50
2021/01/06 02:30:22;;;;;;;2.20;2.00;;;;;16.20;100407.00;;;;2063922;28;20226;-51
2021/01/06 02:31:22;;;;;;;2.40;2.20;;;;;16.20;100409.00;;;;2071824;28;20214;-50
2021/01/06 02:32:22;;;;;;;2.30;2.10;;;;;16.20;100408.00;;;;2071226;28;20457;-52
2021/01/06 02:33:23;;;;;;;2.30;2.10;;;;;16.20;100405.00;;;;2071427;28;20230;-51
2021/01/06 02:34:24;;;;;;;2.37;2.17;;;;;16.20;100409.00;;;;2071352;28;20688;-50
2021/01/06 02:35:24;;;;;;;2.40;2.20;;;;;16.20;100403.00;;;;2071279;28;20604;-51
2021/01/06 02:36:25;;;;;;;2.40;2.20;;;;;16.20;100402.00;;;;2071107;28;20226;-52
2021/01/06 02:37:26;;;;;;;2.00;1.90;;;;;16.20;100412.00;;;;2071017;28;20237;-51
2021/01/06 02:38:27;;;;;;;2.00;1.90;;;;;16.20;100404.00;;;;2062852;28;20215;-51
2021/01/06 02:39:27;;;;;;;2.17;1.97;;;;;16.20;100411.00;;;;2062812;28;20261;-52
2021/01/06 02:40:27;;;;;;;2.30;2.20;;;;;16.20;100408.00;;;;2054384;28;20212;-51
2021/01/06 02:41:27;;;;;;;1.80;1.70;;;;;16.20;100408.00;;;;2055101;28;20303;-51
2021/01/06 02:42:28;;;;;;;1.93;1.83;;;;;16.20;100403.00;;;;2064070;28;20211;-51
2021/01/06 02:43:28;;;;;;;2.43;2.27;;;;;16.20;100410.00;;;;2063453;28;20212;-50
2021/01/06 02:44:29;;;;;;;2.20;2.00;;;;;16.20;100409.00;;;;2061819;28;20261;-52
2021/01/06 02:45:29;;;;;;;1.73;1.63;;;;;16.20;100415.00;;;;2063774;28;20234;-51
2021/01/06 02:46:30;;;;;;;2.00;1.90;;;;;16.20;100414.00;;;;2070397;28;20215;-51
2021/01/06 02:47:30;;;;;;;2.00;1.90;;;;;16.20;100408.00;;;;2070674;28;20210;-50
2021/01/06 02:48:31;;;;;;;2.03;1.83;;;;;16.20;100415.00;;;;2071845;28;20226;-51
2021/01/06 02:49:31;;;;;;;2.00;1.90;;;;;16.20;100404.00;;;;2072469;28;20845;-52
2021/01/06 02:50:31;;;;;;;2.10;1.90;;;;;16.20;100413.00;;;;2071161;28;20222;-52
2021/01/06 02:51:48;;;;;;;1.83;1.73;;;;;16.20;100411.00;;;;2063200;28;20207;-51
2021/01/06 02:52:52;;;;;;;1.77;1.67;;;;;16.20;100411.00;;;;2071145;28;20313;-51
2021/01/06 02:53:54;;;;;;;2.10;2.00;;;;;16.20;100412.00;;;;2062798;28;20302;-51
2021/01/06 02:54:54;;;;;;;1.80;1.70;;;;;16.20;100417.00;;;;2062600;28;20234;-52
2021/01/06 02:55:55;;;;;;;2.10;1.93;;;;;16.20;100409.00;;;;2058954;28;20224;-51
2021/01/06 02:56:56;;;;;;;2.07;1.90;;;;;16.20;100410.00;;;;2067871;28;20269;-52
2021/01/06 02:57:57;;;;;;;1.90;1.80;;;;;16.20;100419.00;;;;2063607;28;20298;-51
2021/01/06 02:58:57;;;;;;;2.13;1.88;;;;;16.20;100419.00;;;;2055483;28;20230;-51
2021/01/06 02:59:58;;;;;;;2.00;1.90;;;;;16.20;100419.00;;;;2055699;28;20212;-51
2021/01/06 03:00:58;;;;;;;1.80;1.70;;;;;16.20;100406.00;;;;2055633;28;20295;-51
2021/01/06 03:01:58;;;;;;;2.20;2.03;;;;;16.20;100413.00;;;;2055555;28;20227;-51
2021/01/06 03:02:59;;;;;;;1.93;1.80;;;;;16.20;100428.00;;;;2047224;28;20227;-51
2021/01/06 03:03:59;;;;;;;2.20;2.00;;;;;16.20;100414.00;;;;2055436;28;20223;-51
2021/01/06 03:05:14;;;;;;;2.30;2.10;;;;;16.20;100411.00;;;;2054945;28;20220;-50
2021/01/06 03:06:16;;;;;;;2.10;1.90;;;;;16.20;100415.00;;;;2050881;28;20216;-52
2021/01/06 03:07:17;;;;;;;1.80;1.70;;;;;16.20;100411.00;;;;2056205;28;20215;-51
2021/01/06 03:08:18;;;;;;;2.00;1.90;;;;;16.20;100419.00;;;;2055346;28;20715;-50
2021/01/06 03:09:25;;;;;;;2.00;1.90;;;;;16.20;100425.00;;;;2063330;28;20702;-52
2021/01/06 03:10:25;;;;;;;1.98;1.85;;;;;16.20;100414.00;;;;2064451;28;20649;-51
2021/01/06 03:11:25;;;;;;;1.97;1.87;;;;;16.20;100413.00;;;;2072194;28;20214;-51
2021/01/06 03:12:29;;;;;;;1.70;1.60;;;;;16.20;100418.00;;;;2071639;28;20302;-51
2021/01/06 03:13:29;;;;;;;2.15;2.05;;;;;16.20;100414.00;;;;2060999;28;20223;-51
2021/01/06 03:14:30;;;;;;;1.80;1.70;;;;;16.20;100420.00;;;;2064148;28;20696;-50
2021/01/06 03:15:31;;;;;;;2.10;1.90;;;;;16.20;100421.00;;;;2063314;28;20278;-51
2021/01/06 03:16:31;;;;;;;2.27;2.07;;;;;16.20;100418.00;;;;2063429;28;20282;-51
2021/01/06 03:17:31;;;;;;;2.00;1.90;;;;;16.20;100414.00;;;;2071335;28;20683;-51
2021/01/06 03:18:32;;;;;;;1.60;1.50;;;;;16.20;100418.00;;;;2063485;28;20554;-50
2021/01/06 03:19:33;;;;;;;2.10;2.00;;;;;16.20;100400.00;;;;2070618;28;20261;-51
2021/01/06 03:20:35;;;;;;;1.75;1.65;;;;;16.20;100406.00;;;;2063421;28;20226;-50
2021/01/06 03:21:37;;;;;;;1.77;1.67;;;;;16.20;100410.00;;;;2063713;28;20248;-51
2021/01/06 03:22:39;;;;;;;1.95;1.75;;;;;16.20;100410.00;;;;2071170;28;20285;-51
2021/01/06 03:23:50;;;;;;;1.77;1.67;;;;;16.20;100403.00;;;;2052802;28;20761;-51
2021/01/06 03:25:11;;;;;;;1.38;1.27;;;;;16.20;100415.00;;;;2058696;28;20302;-52
2021/01/06 03:26:14;;;;;;;1.95;1.85;;;;;16.20;100406.00;;;;2058313;28;20210;-50
2021/01/06 03:27:14;;;;;;;1.80;1.70;;;;;16.20;100405.00;;;;2055196;28;20678;-51
2021/01/06 03:28:16;;;;;;;1.70;1.60;;;;;16.20;100407.00;;;;2063617;28;20227;-51
2021/01/06 03:29:16;;;;;;;1.52;1.42;;;;;16.20;100410.00;;;;2071485;28;20246;-51
2021/01/06 03:30:21;;;;;;;1.80;1.70;;;;;16.20;100408.00;;;;2063373;28;20238;-51
2021/01/06 03:31:24;;;;;;;1.60;1.50;;;;;16.20;100402.00;;;;2055917;28;20216;-52
2021/01/06 03:32:29;;;;;;;1.52;1.42;;;;;16.20;100405.00;;;;2047505;28;20213;-52
2021/01/06 03:33:50;;;;;;;1.70;1.60;;;;;16.20;100406.00;;;;2056486;28;20686;-52
2021/01/06 03:34:57;;;;;;;1.75;1.65;;;;;16.20;100401.00;;;;2064830;28;20301;-53
2021/01/06 03:36:03;;;;;;;1.73;1.63;;;;;16.20;100410.00;;;;2062993;28;20226;-52
2021/01/06 03:37:10;;;;;;;1.77;1.67;;;;;16.20;100403.00;;;;2055508;28;20259;-52
2021/01/06 03:38:15;;;;;;;1.77;1.67;;;;;16.20;100408.00;;;;2054757;28;20227;-53
2021/01/06 03:39:24;;;;;;;1.70;1.60;;;;;16.20;100399.00;;;;2056814;28;20219;-50
2021/01/06 03:40:27;;;;;;;1.70;1.60;;;;;16.30;100406.00;;;;2056204;28;20254;-52
2021/01/06 03:41:28;;;;;;;1.58;1.48;;;;;16.20;100391.00;;;;2055624;28;20636;-52
2021/01/06 03:42:28;;;;;;;1.70;1.60;;;;;16.20;100408.00;;;;2063367;28;20215;-54
2021/01/06 03:43:30;;;;;;;1.80;1.70;;;;;16.20;100403.00;;;;2072781;28;20256;-52
2021/01/06 03:44:30;;;;;;;1.83;1.73;;;;;16.20;100409.00;;;;2062912;28;20215;-52
2021/01/06 03:45:30;;;;;;;1.67;1.50;;;;;16.20;100402.00;;;;2053722;28;20776;-52
2021/01/06 03:46:45;;;;;;;1.80;1.70;;;;;16.20;100403.00;;;;2055063;28;20215;-52
2021/01/06 03:47:45;;;;;;;1.63;1.52;;;;;16.20;100401.00;;;;2051788;28;20664;-53
2021/01/06 03:49:01;;;;;;;1.97;1.87;;;;;16.20;100408.00;;;;2056741;28;20235;-51
2021/01/06 03:50:17;;;;;;;1.80;1.70;;;;;16.20;100398.00;;;;2064932;28;20223;-52
2021/01/06 03:51:45;;;;;;;1.60;1.50;;;;;16.20;100406.00;;;;2055065;28;20308;-51
2021/01/06 03:53:00;;;;;;;1.80;1.70;;;;;16.20;100400.00;;;;2061779;28;20771;-52
2021/01/06 03:54:05;;;;;;;1.70;1.60;;;;;16.20;100404.00;;;;2065008;28;20223;-53
2021/01/06 03:55:25;;;;;;;1.98;1.88;;;;;16.20;100399.00;;;;2062802;28;20219;-51
2021/01/06 03:56:27;;;;;;;1.50;1.40;;;;;16.20;100396.00;;;;2061222;28;20302;-51
2021/01/06 03:57:27;;;;;;;1.40;1.30;;;;;16.20;100398.00;;;;2064770;28;20211;-50
2021/01/06 03:59:11;;;;;;;1.80;1.70;;;;;16.20;100404.00;;;;2070930;28;20218;-51
2021/01/06 04:00:22;;;;;;;1.65;1.55;;;;;16.20;100397.00;;;;2057723;28;20281;-52
2021/01/06 04:01:42;;;;;;;1.60;1.50;;;;;16.20;100387.00;;;;2063051;28;20688;-53
2021/01/06 04:02:43;;;;;;;1.80;1.50;;;;;16.20;100395.00;;;;2066237;28;20202;-53
2021/01/06 04:04:01;;;;;;;1.60;1.50;;;;;16.20;100392.00;;;;2071253;28;20214;-53
2021/01/06 04:05:08;;;;;;;1.38;1.27;;;;;16.20;100393.00;;;;2070321;28;20211;-55
2021/01/06 04:06:09;;;;;;;1.80;1.70;;;;;16.20;100397.00;;;;2057516;28;20244;-52
2021/01/06 04:07:21;;;;;;;1.87;1.77;;;;;16.20;100398.00;;;;2069061;28;20265;-52
2021/01/06 04:08:26;;;;;;;2.10;1.58;;;;;16.20;100400.00;;;;2071139;28;20774;-52
2021/01/06 04:09:45;;;;;;;1.50;1.40;;;;;16.20;100395.00;;;;2062884;28;20226;-50
2021/01/06 04:10:49;;;;;;;1.42;1.30;;;;;16.20;100405.00;;;;2065853;28;21059;-53
2021/01/06 04:12:05;;;;;;;1.50;1.40;;;;;16.20;100401.00;;;;2062858;28;20226;-52
2021/01/06 04:13:05;;;;;;;1.50;1.40;;;;;16.20;100397.00;;;;2059281;28;20216;-51
2021/01/06 04:14:05;;;;;;;1.97;1.87;;;;;16.20;100388.00;;;;2070984;28;20236;-51
2021/01/06 04:15:07;;;;;;;1.57;1.47;;;;;16.20;100386.00;;;;2071106;28;20700;-54
2021/01/06 04:16:07;;;;;;;1.35;1.25;;;;;16.20;100391.00;;;;2071461;28;20584;-52
2021/01/06 04:17:24;;;;;;;1.50;1.40;;;;;16.20;100382.00;;;;2071464;28;20215;-52
2021/01/06 04:18:25;;;;;;;1.58;1.48;;;;;16.20;100389.00;;;;2064083;28;20738;-51
2021/01/06 04:19:25;;;;;;;1.43;1.33;;;;;16.20;100392.00;;;;2071403;28;20214;-52
2021/01/06 04:20:36;;;;;;;1.50;1.40;;;;;16.20;100387.00;;;;2071495;28;20219;-51
2021/01/06 04:21:36;;;;;;;1.60;1.50;;;;;16.20;100382.00;;;;2062004;28;20226;-51
2021/01/06 04:22:41;;;;;;;1.40;1.30;;;;;16.20;100379.00;;;;2061510;28;20310;-51
2021/01/06 04:23:41;;;;;;;1.58;1.48;;;;;16.20;100385.00;;;;2053952;28;20222;-53
2021/01/06 04:24:41;;;;;;;1.17;1.10;;;;;16.20;100389.00;;;;2069462;28;20740;-53
2021/01/06 04:25:43;;;;;;;1.40;1.30;;;;;16.20;100381.00;;;;2065661;28;20297;-52
2021/01/06 04:26:44;;;;;;;1.60;1.50;;;;;16.20;100377.00;;;;2063261;28;20235;-52
2021/01/06 04:27:44;;;;;;;1.73;1.63;;;;;16.20;100383.00;;;;2054417;28;20239;-50
2021/01/06 04:28:45;;;;;;;1.50;1.40;;;;;16.20;100378.00;;;;2054750;28;20212;-51
2021/01/06 04:29:45;;;;;;;1.40;1.30;;;;;16.20;100379.00;;;;2062638;28;20223;-51
2021/01/06 04:30:48;;;;;;;1.50;1.40;;;;;16.20;100381.00;;;;2062764;28;20771;-50
2021/01/06 04:31:49;;;;;;;1.60;1.50;;;;;16.20;100389.00;;;;2063579;28;20234;-50
2021/01/06 04:32:49;;;;;;;1.60;1.50;;;;;16.20;100385.00;;;;2063559;28;20294;-51
2021/01/06 04:33:54;;;;;;;1.40;1.30;;;;;16.20;100391.00;;;;2063381;28;20229;-52
2021/01/06 04:34:54;;;;;;;1.30;1.20;;;;;16.20;100377.00;;;;2062575;28;20219;-53
2021/01/06 04:35:55;;;;;;;1.70;1.60;;;;;16.20;100376.00;;;;2063687;28;20289;-52
2021/01/06 04:36:55;;;;;;;1.60;1.50;;;;;16.20;100380.00;;;;2062927;28;20230;-51
2021/01/06 04:37:57;;;;;;;1.40;1.30;;;;;16.20;100388.00;;;;2076899;28;20241;-51
2021/01/06 04:38:59;;;;;;;1.83;1.73;;;;;16.20;100389.00;;;;2075466;28;20236;-51
2021/01/06 04:40:00;;;;;;;1.55;1.45;;;;;16.20;100393.00;;;;2060381;28;20343;-56
2021/01/06 04:41:10;;;;;;;1.40;1.30;;;;;16.00;100382.00;;;;2061067;28;20759;-55
2021/01/06 04:42:10;;;;;;;1.65;1.55;;;;;16.20;100384.00;;;;2062774;28;20585;-52
2021/01/06 04:43:27;;;;;;;1.60;1.50;;;;;16.20;100384.00;;;;2054785;28;20342;-53
2021/01/06 04:44:32;;;;;;;1.55;1.45;;;;;16.20;100384.00;;;;2055427;28;20689;-51
2021/01/06 04:45:33;;;;;;;1.40;1.30;;;;;16.20;100387.00;;;;2055836;28;20238;-51
2021/01/06 04:47:11;;;;;;;1.67;1.58;;;;;16.20;100384.00;;;;2054831;28;20220;-51
2021/01/06 04:48:23;;;;;;;1.23;1.13;;;;;16.20;100382.00;;;;2062826;28;20295;-51
2021/01/06 04:49:35;;;;;;;1.50;1.40;;;;;16.20;100379.00;;;;2063177;28;20632;-51
2021/01/06 04:50:55;;;;;;;1.50;1.40;;;;;16.20;100383.00;;;;2055017;28;20243;-51
2021/01/06 04:52:02;;;;;;;2.28;1.63;;;;;16.20;100385.00;;;;2062886;28;21160;-52
2021/01/06 04:53:24;;;;;;;1.45;1.35;;;;;16.20;100386.00;;;;2062267;28;20215;-52
2021/01/06 04:54:47;;;;;;;1.45;1.30;;;;;16.20;100380.00;;;;2062917;28;20270;-53
2021/01/06 04:55:55;;;;;;;1.40;1.30;;;;;16.10;100384.00;;;;2075086;28;20259;-52
2021/01/06 04:57:31;;;;;;;1.40;1.30;;;;;16.20;100391.00;;;;2067009;28;20688;-50
2021/01/06 04:58:53;;;;;;;1.48;1.38;;;;;16.20;100385.00;;;;2045767;28;20279;-51
2021/01/06 05:00:07;;;;;;;1.50;1.40;;;;;16.20;100386.00;;;;2043234;28;20224;-52
2021/01/06 05:01:30;;;;;;;1.70;1.60;;;;;16.20;100381.00;;;;2057264;28;20315;-50
2021/01/06 05:02:39;;;;;;;1.40;1.30;;;;;16.20;100384.00;;;;2062073;28;20744;-51
2021/01/06 05:04:07;;;;;;;1.58;1.48;;;;;16.20;100389.00;;;;2061862;28;20581;-52
2021/01/06 05:05:29;;;;;;;1.15;1.05;;;;;16.20;100385.00;;;;2061840;28;20315;-54
2021/01/06 05:06:40;;;;;;;1.70;1.60;;;;;16.20;100388.00;;;;2062064;28;20207;-50
2021/01/06 05:07:49;;;;;;;1.42;1.33;;;;;16.20;100382.00;;;;2062086;28;20220;-51
2021/01/06 05:08:51;;;;;;;1.50;1.40;;;;;16.20;100383.00;;;;2062505;28;20241;-52
2021/01/06 05:10:17;;;;;;;1.58;1.13;;;;;16.20;100387.00;;;;2061292;28;20684;-52
2021/01/06 05:11:27;;;;;;;1.40;1.30;;;;;16.20;100392.00;;;;2059806;28;20222;-53
2021/01/06 05:12:39;;;;;;;1.25;1.15;;;;;16.20;100377.00;;;;2055315;28;20215;-52
2021/01/06 05:14:01;;;;;;;1.20;1.10;;;;;16.20;100383.00;;;;2055347;28;20304;-52
2021/01/06 05:15:11;;;;;;;1.40;1.27;;;;;16.20;100386.00;;;;2062072;28;20250;-52
2021/01/06 05:16:40;;;;;;;1.35;1.25;;;;;16.20;100386.00;;;;2062700;28;20218;-52
2021/01/06 05:17:40;;;;;;;1.50;1.40;;;;;16.20;100380.00;;;;2064491;28;20252;-52
2021/01/06 05:18:41;;;;;;;1.60;1.50;;;;;16.20;100371.00;;;;2071180;28;20225;-51
2021/01/06 05:19:41;;;;;;;1.70;1.60;;;;;16.20;100379.00;;;;2069629;28;20222;-52